createdAt,value
2022-12-15T00:00:05.096Z,2.65
2022-12-15T00:02:50.984Z,4.22
2022-12-15T00:05:36.733Z,3.47
2022-12-15T00:08:29.570Z,1.65
2022-12-15T00:11:15.748Z,2.28
2022-12-15T00:14:01.566Z,2.28
2022-12-15T00:16:47.278Z,2.15
2022-12-15T00:19:32.804Z,1.88
2022-12-15T00:22:18.699Z,1.80
2022-12-15T00:25:04.737Z,2.13
2022-12-15T00:27:50.372Z,1.40
2022-12-15T00:30:36.217Z,2.15
2022-12-15T00:33:30.408Z,1.73
2022-12-15T00:36:19.305Z,1.67
2022-12-15T00:38:47.630Z,1.70
2022-12-15T00:41:17.628Z,1.33
2022-12-15T00:43:45.459Z,1.58
2022-12-15T00:46:31.618Z,1.80
2022-12-15T00:48:59.599Z,2.15
2022-12-15T00:51:45.821Z,2.15
2022-12-15T00:54:32.205Z,1.75
2022-12-15T00:57:18.003Z,1.60
2022-12-15T01:00:03.928Z,1.65
2022-12-15T01:02:55.965Z,1.63
2022-12-15T01:05:42.269Z,1.73
2022-12-15T01:08:27.848Z,2.72
2022-12-15T01:11:14.015Z,1.38
2022-12-15T01:13:59.922Z,3.08
2022-12-15T01:16:45.430Z,2.22
2022-12-15T01:19:31.228Z,1.58
2022-12-15T01:21:58.492Z,1.48
2022-12-15T01:24:32.123Z,1.48
2022-12-15T01:26:59.534Z,1.33
2022-12-15T01:29:26.958Z,1.33
2022-12-15T01:31:54.283Z,1.42
2022-12-15T01:34:22.857Z,1.92
2022-12-15T01:36:50.243Z,1.90
2022-12-15T01:39:17.474Z,1.40
2022-12-15T01:41:44.733Z,1.75
2022-12-15T01:44:17.337Z,1.63
2022-12-15T01:46:45.214Z,1.58
2022-12-15T01:49:17.953Z,1.30
2022-12-15T01:51:49.982Z,1.83
2022-12-15T01:54:35.488Z,1.38
2022-12-15T01:57:09.333Z,2.25
2022-12-15T01:59:43.910Z,2.15
2022-12-15T02:02:13.484Z,1.38
2022-12-15T02:04:41.780Z,1.67
2022-12-15T02:07:16.959Z,1.95
2022-12-15T02:09:46.079Z,1.52
2022-12-15T02:12:33.323Z,2.83
2022-12-15T02:15:09.536Z,1.83
2022-12-15T02:17:48.719Z,2.10
2022-12-15T02:20:31.054Z,1.30
2022-12-15T02:23:35.591Z,1.42
2022-12-15T02:26:08.638Z,1.27
2022-12-15T02:29:13.412Z,2.58
2022-12-15T02:31:49.823Z,1.25
2022-12-15T02:34:36.373Z,2.00
2022-12-15T02:37:15.774Z,1.63
2022-12-15T02:39:43.289Z,1.70
2022-12-15T02:42:13.698Z,1.58
2022-12-15T02:45:06.079Z,1.42
2022-12-15T02:47:55.813Z,1.48
2022-12-15T02:50:44.868Z,1.65
2022-12-15T02:53:18.274Z,1.45
2022-12-15T02:56:02.944Z,1.33
2022-12-15T02:58:35.524Z,2.17
2022-12-15T03:01:19.459Z,1.50
2022-12-15T03:03:48.725Z,1.40
2022-12-15T03:06:17.014Z,1.50
2022-12-15T03:08:44.360Z,1.45
2022-12-15T03:11:11.948Z,1.33
2022-12-15T03:13:39.301Z,1.38
2022-12-15T03:16:06.880Z,1.67
2022-12-15T03:18:34.512Z,1.88
2022-12-15T03:21:01.970Z,1.48
2022-12-15T03:23:29.800Z,1.73
2022-12-15T03:25:57.348Z,1.20
2022-12-15T03:28:24.731Z,1.52
2022-12-15T03:30:51.991Z,1.40
2022-12-15T03:33:20.196Z,1.60
2022-12-15T03:35:47.623Z,1.13
2022-12-15T03:38:14.944Z,1.10
2022-12-15T03:40:45.823Z,1.40
2022-12-15T03:43:17.201Z,1.95
2022-12-15T03:45:45.169Z,1.10
2022-12-15T03:48:12.824Z,2.28
2022-12-15T03:50:41.743Z,1.50
2022-12-15T03:53:14.092Z,1.50
2022-12-15T03:55:42.296Z,1.75
2022-12-15T03:58:09.652Z,2.20
2022-12-15T04:00:36.988Z,2.38
2022-12-15T04:03:08.635Z,1.63
2022-12-15T04:05:44.281Z,1.08
2022-12-15T04:08:15.476Z,2.05
2022-12-15T04:10:55.246Z,2.53
2022-12-15T04:13:47.027Z,1.60
2022-12-15T04:16:31.539Z,2.50
2022-12-15T04:19:23.040Z,2.15
2022-12-15T04:22:17.761Z,3.85
2022-12-15T04:25:10.935Z,2.30
2022-12-15T04:28:01.390Z,2.13
2022-12-15T04:30:50.104Z,2.17
2022-12-15T04:33:40.271Z,2.28
2022-12-15T04:36:30.338Z,2.10
2022-12-15T04:39:17.392Z,1.83
2022-12-15T04:42:03.517Z,2.05
2022-12-15T04:44:49.958Z,2.95
2022-12-15T04:47:35.770Z,2.45
2022-12-15T04:50:21.429Z,2.17
2022-12-15T04:53:07.020Z,2.05
2022-12-15T04:55:56.448Z,3.35
2022-12-15T04:58:42.106Z,2.63
2022-12-15T05:01:28.606Z,3.60
2022-12-15T05:04:14.686Z,2.00
2022-12-15T05:07:01.698Z,2.30
2022-12-15T05:09:47.307Z,1.88
2022-12-15T05:12:33.120Z,2.55
2022-12-15T05:15:18.655Z,4.05
2022-12-15T05:18:04.393Z,2.80
2022-12-15T05:20:50.271Z,2.13
2022-12-15T05:23:36.273Z,3.05
2022-12-15T05:26:23.291Z,2.63
2022-12-15T05:29:08.978Z,3.28
2022-12-15T05:31:55.025Z,2.78
2022-12-15T05:34:26.714Z,2.63
2022-12-15T05:36:55.177Z,2.78
2022-12-15T05:39:23.972Z,2.72
2022-12-15T05:41:52.244Z,2.42
2022-12-15T05:44:19.884Z,2.60
2022-12-15T05:46:47.283Z,3.17
2022-12-15T05:49:17.216Z,3.10
2022-12-15T05:51:46.628Z,2.92
2022-12-15T05:54:17.537Z,3.08
2022-12-15T05:56:45.347Z,3.20
2022-12-15T05:59:13.351Z,3.75
2022-12-15T06:01:40.767Z,3.53
2022-12-15T06:04:08.170Z,3.53
2022-12-15T06:06:35.434Z,3.97
2022-12-15T06:09:03.696Z,4.90
2022-12-15T06:11:31.161Z,3.08
2022-12-15T06:13:58.420Z,3.17
2022-12-15T06:16:28.261Z,3.83
2022-12-15T06:19:01.136Z,4.03
2022-12-15T06:21:31.434Z,3.88
2022-12-15T06:23:58.822Z,4.70
2022-12-15T06:26:28.608Z,3.85
2022-12-15T06:29:02.681Z,2.95
2022-12-15T06:34:02.108Z,3.55
2022-12-15T06:36:31.160Z,4.00
2022-12-15T06:39:02.315Z,4.03
2022-12-15T06:41:30.787Z,2.90
2022-12-15T06:43:59.422Z,3.20
2022-12-15T06:46:28.859Z,5.20
2022-12-15T06:48:56.593Z,3.22
2022-12-15T06:51:24.256Z,4.18
2022-12-15T06:53:55.592Z,3.70
2022-12-15T06:56:32.520Z,3.97
2022-12-15T06:59:00.821Z,3.55
2022-12-15T07:01:28.443Z,4.47
2022-12-15T07:03:56.665Z,4.93
2022-12-15T07:06:24.279Z,4.00
2022-12-15T07:08:54.556Z,3.88
2022-12-15T07:11:23.062Z,3.78
2022-12-15T07:13:55.162Z,4.07
2022-12-15T07:16:23.476Z,4.50
2022-12-15T07:18:51.296Z,3.85
2022-12-15T07:21:18.708Z,5.07
2022-12-15T07:23:55.796Z,3.75
2022-12-15T07:26:25.092Z,4.38
2022-12-15T07:28:53.992Z,4.43
2022-12-15T07:31:22.373Z,3.63
2022-12-15T07:33:52.135Z,3.72
2022-12-15T07:36:19.878Z,4.10
2022-12-15T07:38:50.551Z,3.85
2022-12-15T07:41:19.748Z,3.55
2022-12-15T07:43:48.003Z,3.65
2022-12-15T07:46:15.935Z,4.93
2022-12-15T07:48:43.229Z,3.40
2022-12-15T07:51:18.768Z,3.65
2022-12-15T07:53:47.671Z,3.95
2022-12-15T07:56:15.588Z,3.92
2022-12-15T07:58:43.167Z,3.45
2022-12-15T08:01:12.944Z,4.35
2022-12-15T08:03:41.183Z,4.38
2022-12-15T08:06:11.610Z,3.75
2022-12-15T08:08:39.759Z,4.30
2022-12-15T08:11:08.877Z,5.03
2022-12-15T08:14:01.903Z,3.67
2022-12-15T08:16:24.866Z,5.20
2022-12-15T08:18:52.298Z,4.93
2022-12-15T08:21:19.718Z,5.25
2022-12-15T08:23:47.230Z,4.13
2022-12-15T08:26:16.849Z,4.93
2022-12-15T08:28:45.240Z,4.28
2022-12-15T08:31:18.779Z,4.28
2022-12-15T08:33:46.999Z,4.75
2022-12-15T08:36:16.413Z,4.55
2022-12-15T08:38:45.609Z,4.43
2022-12-15T08:41:28.212Z,5.90
2022-12-15T08:43:56.665Z,7.05
2022-12-15T08:46:29.944Z,5.35
2022-12-15T08:48:58.267Z,5.00
2022-12-15T08:51:28.290Z,5.45
2022-12-15T08:53:56.856Z,5.40
2022-12-15T08:56:25.643Z,5.70
2022-12-15T08:58:58.494Z,5.93
2022-12-15T09:01:27.657Z,6.65
2022-12-15T09:03:56.584Z,5.10
2022-12-15T09:06:32.426Z,5.40
2022-12-15T09:09:02.658Z,6.20
2022-12-15T09:11:31.269Z,7.18
2022-12-15T09:13:58.959Z,5.97
2022-12-15T09:16:26.592Z,6.88
2022-12-15T09:18:56.267Z,7.15
2022-12-15T09:21:26.762Z,6.65
2022-12-15T09:23:57.843Z,6.65
2022-12-15T09:26:25.089Z,6.78
2022-12-15T09:28:55.051Z,6.80
2022-12-15T09:31:33.151Z,6.90
2022-12-15T09:34:01.272Z,6.90
2022-12-15T09:36:30.603Z,7.13
2022-12-15T09:38:58.162Z,7.93
2022-12-15T09:41:34.706Z,6.15
2022-12-15T09:44:13.015Z,8.88
2022-12-15T09:47:05.996Z,8.18
2022-12-15T09:49:45.520Z,7.93
2022-12-15T09:52:14.147Z,7.93
2022-12-15T09:54:43.233Z,7.72
2022-12-15T09:57:16.898Z,7.57
2022-12-15T10:00:04.922Z,8.57
2022-12-15T10:02:51.631Z,8.00
2022-12-15T10:05:57.448Z,8.43
2022-12-15T10:08:20.349Z,8.00
2022-12-15T10:10:59.138Z,9.30
2022-12-15T10:13:40.199Z,8.02
2022-12-15T10:16:36.489Z,9.23
2022-12-15T10:19:19.864Z,8.70
2022-12-15T10:21:50.630Z,7.68
2022-12-15T10:24:44.314Z,7.57
2022-12-15T10:27:49.241Z,8.20
2022-12-15T10:30:16.864Z,10.77
2022-12-15T10:33:01.744Z,7.90
2022-12-15T10:35:33.792Z,7.32
2022-12-15T10:38:03.887Z,8.63
2022-12-15T10:40:52.288Z,7.93
2022-12-15T10:43:28.316Z,8.15
2022-12-15T10:46:07.364Z,8.55
2022-12-15T10:48:36.399Z,7.75
2022-12-15T10:51:24.885Z,7.97
2022-12-15T10:54:13.311Z,9.13
2022-12-15T10:56:51.881Z,7.43
2022-12-15T10:59:34.624Z,7.55
2022-12-15T11:05:16.496Z,9.23
2022-12-15T11:08:13.283Z,5.95
2022-12-15T11:11:11.042Z,8.63
2022-12-15T11:13:39.341Z,9.15
2022-12-15T11:16:18.817Z,10.23
2022-12-15T11:18:58.911Z,8.27
2022-12-15T11:21:37.009Z,6.95
2022-12-15T11:24:27.303Z,8.30
2022-12-15T11:27:26.504Z,9.45
2022-12-15T11:29:59.823Z,8.02
2022-12-15T11:32:32.601Z,9.97
2022-12-15T11:35:00.690Z,10.48
2022-12-15T11:37:39.469Z,9.05
2022-12-15T11:40:25.394Z,8.65
2022-12-15T11:42:52.660Z,11.85
2022-12-15T11:45:22.840Z,8.80
2022-12-15T11:47:57.292Z,7.35
2022-12-15T11:51:02.337Z,9.55
2022-12-15T11:53:41.875Z,7.70
2022-12-15T11:56:27.750Z,7.40
2022-12-15T11:59:18.263Z,7.30
2022-12-15T12:02:10.791Z,10.35
2022-12-15T12:04:55.976Z,7.22
2022-12-15T12:07:26.287Z,8.70
2022-12-15T12:10:17.829Z,11.43
2022-12-15T12:13:10.666Z,8.68
2022-12-15T12:15:55.952Z,8.32
2022-12-15T12:18:29.254Z,7.35
2022-12-15T12:21:17.087Z,8.70
2022-12-15T12:24:04.596Z,7.82
2022-12-15T12:26:39.323Z,10.15
2022-12-15T12:29:28.781Z,9.18
2022-12-15T12:32:38.027Z,13.13
2022-12-15T12:35:31.432Z,8.80
2022-12-15T12:40:56.027Z,8.82
2022-12-15T12:43:33.603Z,9.85
2022-12-15T12:46:19.885Z,9.43
2022-12-15T12:48:56.275Z,12.75
2022-12-15T12:51:39.181Z,8.63
2022-12-15T12:54:37.068Z,7.63
2022-12-15T12:57:14.255Z,8.23
2022-12-15T12:59:44.060Z,9.98
2022-12-15T13:02:22.325Z,12.77
2022-12-15T13:05:04.539Z,10.75
2022-12-15T13:07:34.951Z,10.15
2022-12-15T13:10:07.985Z,8.13
2022-12-15T13:12:53.940Z,8.80
2022-12-15T13:18:25.261Z,6.68
2022-12-15T13:20:57.277Z,5.82
2022-12-15T13:23:24.458Z,5.50
2022-12-15T13:26:01.602Z,5.93
2022-12-15T13:28:40.644Z,5.25
2022-12-15T13:31:17.375Z,6.20
2022-12-15T13:33:50.945Z,7.93
2022-12-15T13:36:36.914Z,6.93
2022-12-15T13:39:25.964Z,4.47
2022-12-15T13:44:45.443Z,5.50
2022-12-15T13:47:12.817Z,7.15
2022-12-15T13:49:53.113Z,5.57
2022-12-15T13:55:28.302Z,5.40
2022-12-15T13:58:16.108Z,5.10
2022-12-15T14:01:27.209Z,6.63
2022-12-15T14:04:18.476Z,5.70
2022-12-15T14:07:01.972Z,5.20
2022-12-15T14:09:42.043Z,7.23
2022-12-15T14:12:13.819Z,7.53
2022-12-15T14:14:49.194Z,8.27
2022-12-15T14:17:19.477Z,7.13
2022-12-15T14:22:36.197Z,7.60
2022-12-15T14:25:26.006Z,9.65
2022-12-15T14:27:53.250Z,9.10
2022-12-15T14:30:28.404Z,6.70
2022-12-15T14:33:09.137Z,7.22
2022-12-15T14:35:42.416Z,6.20
2022-12-15T14:38:18.228Z,5.72
2022-12-15T14:40:49.183Z,4.78
2022-12-15T14:43:29.850Z,4.85
2022-12-15T14:46:11.369Z,5.78
2022-12-15T14:48:43.095Z,4.15
2022-12-15T14:51:13.230Z,4.75
2022-12-15T14:53:43.002Z,6.28
2022-12-15T14:56:14.231Z,3.63
2022-12-15T14:58:42.314Z,4.10
2022-12-15T15:01:34.316Z,4.30
2022-12-15T15:03:09.281Z,9.35
2022-12-15T15:03:10.012Z,10.80
2022-12-15T15:03:10.166Z,6.40
2022-12-15T15:04:06.960Z,4.32
2022-12-15T15:06:39.563Z,3.75
2022-12-15T15:09:23.053Z,4.80
2022-12-15T15:11:53.536Z,3.47
2022-12-15T15:14:37.562Z,4.97
2022-12-15T15:17:09.696Z,3.47
2022-12-15T15:19:45.484Z,4.55
2022-12-15T15:22:29.676Z,2.50
2022-12-15T15:24:56.877Z,3.05
2022-12-15T15:27:30.267Z,2.83
2022-12-15T15:30:27.044Z,2.50
2022-12-15T15:32:55.543Z,2.08
2022-12-15T15:35:25.100Z,2.70
2022-12-15T15:37:56.492Z,2.38
2022-12-15T15:40:24.022Z,2.47
2022-12-15T15:42:51.247Z,2.67
2022-12-15T15:45:18.491Z,2.55
2022-12-15T15:47:49.836Z,2.55
2022-12-15T15:50:27.067Z,2.58
2022-12-15T15:52:54.417Z,2.83
2022-12-15T15:55:36.143Z,3.10
2022-12-15T15:58:13.069Z,3.30
2022-12-15T16:00:40.771Z,3.03
2022-12-15T16:03:08.759Z,2.92
2022-12-15T16:05:36.275Z,3.88
2022-12-15T16:08:05.002Z,3.15
2022-12-15T16:10:32.497Z,3.53
2022-12-15T16:13:03.405Z,3.35
2022-12-15T16:15:31.801Z,3.10
2022-12-15T16:17:59.383Z,3.95
2022-12-15T16:20:29.295Z,4.93
2022-12-15T16:23:17.464Z,3.80
2022-12-15T16:26:03.696Z,4.28
2022-12-15T16:28:31.846Z,3.97
2022-12-15T16:30:59.516Z,4.35
2022-12-15T16:33:27.397Z,4.05
2022-12-15T16:35:54.632Z,4.22
2022-12-15T16:38:28.048Z,4.95
2022-12-15T16:40:56.419Z,4.57
2022-12-15T16:43:26.926Z,4.75
2022-12-15T16:45:56.413Z,4.97
2022-12-15T16:48:23.964Z,4.00
2022-12-15T16:50:59.291Z,4.03
2022-12-15T16:53:31.893Z,4.28
2022-12-15T16:56:04.962Z,4.68
2022-12-15T16:58:34.411Z,5.05
2022-12-15T17:01:02.256Z,4.13
2022-12-15T17:03:29.922Z,4.93
2022-12-15T17:06:07.237Z,4.35
2022-12-15T17:08:40.257Z,4.38
2022-12-15T17:11:13.316Z,4.15
2022-12-15T17:13:45.651Z,2.95
2022-12-15T17:16:16.611Z,3.63
2022-12-15T17:18:44.682Z,2.88
2022-12-15T17:21:19.418Z,4.15
2022-12-15T17:23:50.158Z,3.85
2022-12-15T17:26:29.034Z,5.20
2022-12-15T17:29:01.247Z,4.25
2022-12-15T17:31:34.877Z,4.13
2022-12-15T17:34:25.818Z,4.70
2022-12-15T17:36:53.513Z,3.25
2022-12-15T17:39:21.908Z,4.22
2022-12-15T17:42:04.561Z,4.05
2022-12-15T17:44:37.373Z,4.55
2022-12-15T17:47:08.425Z,4.25
2022-12-15T17:49:38.354Z,4.57
2022-12-15T17:52:27.942Z,3.67
2022-12-15T17:54:55.944Z,3.63
2022-12-15T17:57:23.324Z,3.75
2022-12-15T17:59:50.539Z,2.90
2022-12-15T18:02:17.860Z,3.60
2022-12-15T18:04:45.474Z,3.60
2022-12-15T18:07:19.455Z,3.65
2022-12-15T18:09:47.790Z,3.58
2022-12-15T18:12:23.849Z,2.72
2022-12-15T18:14:51.611Z,3.83
2022-12-15T18:17:19.315Z,4.53
2022-12-15T18:19:46.717Z,3.05
2022-12-15T18:22:23.825Z,3.58
2022-12-15T18:24:53.557Z,3.17
2022-12-15T18:27:29.182Z,3.85
2022-12-15T18:29:57.148Z,3.55
2022-12-15T18:32:26.814Z,3.70
2022-12-15T18:34:54.897Z,4.40
2022-12-15T18:37:24.885Z,3.97
2022-12-15T18:39:52.366Z,3.38
2022-12-15T18:42:21.352Z,4.53
2022-12-15T18:44:51.315Z,4.88
2022-12-15T18:47:21.276Z,4.35
2022-12-15T18:49:48.785Z,3.33
2022-12-15T18:52:25.757Z,3.13
2022-12-15T18:54:55.090Z,3.15
2022-12-15T18:57:31.972Z,3.60
2022-12-15T19:00:10.030Z,4.93
2022-12-15T19:02:37.345Z,4.32
2022-12-15T19:05:05.082Z,4.10
2022-12-15T19:07:33.187Z,4.88
2022-12-15T19:10:01.388Z,4.93
2022-12-15T19:12:28.769Z,4.35
2022-12-15T19:14:56.034Z,4.07
2022-12-15T19:17:43.188Z,5.05
2022-12-15T19:20:37.517Z,4.93
2022-12-15T19:23:05.781Z,4.68
2022-12-15T19:25:33.694Z,4.90
2022-12-15T19:28:01.814Z,5.80
2022-12-15T19:30:33.206Z,5.90
2022-12-15T19:33:02.169Z,6.03
2022-12-15T19:35:29.594Z,7.15
2022-12-15T19:37:59.023Z,5.63
2022-12-15T19:40:30.522Z,4.82
2022-12-15T19:42:59.160Z,5.38
2022-12-15T19:45:29.637Z,5.03
2022-12-15T19:47:57.160Z,6.68
2022-12-15T19:50:30.081Z,6.05
2022-12-15T19:53:00.676Z,9.65
2022-12-15T19:55:35.960Z,6.68
2022-12-15T19:58:27.488Z,6.07
2022-12-15T20:00:57.573Z,7.00
2022-12-15T20:03:25.840Z,6.28
2022-12-15T20:05:54.789Z,6.20
2022-12-15T20:08:28.605Z,4.90
2022-12-15T20:10:57.111Z,5.13
2022-12-15T20:13:26.556Z,6.28
2022-12-15T20:15:55.364Z,4.68
2022-12-15T20:18:22.674Z,5.00
2022-12-15T20:20:50.300Z,6.20
2022-12-15T20:23:23.750Z,5.78
2022-12-15T20:25:51.049Z,8.02
2022-12-15T20:28:29.979Z,8.98
2022-12-15T20:30:58.243Z,8.10
2022-12-15T20:33:25.639Z,7.65
2022-12-15T20:35:53.591Z,7.90
2022-12-15T20:38:33.872Z,7.25
2022-12-15T20:41:02.228Z,8.60
2022-12-15T20:43:31.837Z,7.68
2022-12-15T20:46:07.669Z,5.45
2022-12-15T20:48:36.861Z,6.03
2022-12-15T20:51:09.594Z,7.68
2022-12-15T20:53:39.130Z,7.30
2022-12-15T20:56:06.909Z,6.80
2022-12-15T20:58:40.366Z,7.50
2022-12-15T21:01:21.000Z,6.43
2022-12-15T21:03:50.475Z,7.90
2022-12-15T21:06:19.816Z,7.38
2022-12-15T21:08:48.039Z,9.38
2022-12-15T21:11:16.819Z,8.20
2022-12-15T21:13:44.788Z,6.22
2022-12-15T21:16:26.815Z,7.38
2022-12-15T21:19:19.159Z,7.05
2022-12-15T21:21:46.437Z,5.88
2022-12-15T21:24:23.033Z,7.07
2022-12-15T21:26:51.767Z,9.38
2022-12-15T21:29:22.139Z,8.68
2022-12-15T21:31:50.109Z,7.07
2022-12-15T21:34:17.671Z,7.43
2022-12-15T21:36:47.732Z,9.35
2022-12-15T21:39:33.951Z,6.13
2022-12-15T21:42:11.377Z,9.43
2022-12-15T21:44:38.604Z,6.15
2022-12-15T21:48:04.074Z,6.50
2022-12-15T21:50:34.504Z,7.65
2022-12-15T21:53:02.932Z,7.03
2022-12-15T21:55:33.146Z,7.50
2022-12-15T21:58:00.312Z,8.38
2022-12-15T22:00:27.732Z,7.63
2022-12-15T22:02:55.108Z,6.32
2022-12-15T22:05:31.475Z,6.72
2022-12-15T22:08:11.121Z,6.90
2022-12-15T22:10:38.406Z,8.60
2022-12-15T22:13:05.854Z,7.00
2022-12-15T22:15:33.156Z,7.65
2022-12-15T22:18:00.372Z,6.45
2022-12-15T22:20:29.759Z,5.75
2022-12-15T22:22:57.104Z,7.18
2022-12-15T22:25:26.036Z,5.10
2022-12-15T22:27:54.932Z,4.85
2022-12-15T22:30:27.228Z,9.18
2022-12-15T22:32:54.875Z,8.43
2022-12-15T22:35:24.912Z,6.68
2022-12-15T22:37:56.370Z,5.32
2022-12-15T22:40:24.870Z,5.10
2022-12-15T22:42:57.269Z,5.72
2022-12-15T22:45:25.078Z,9.15
2022-12-15T22:47:55.204Z,6.63
2022-12-15T22:50:26.940Z,6.20
2022-12-15T22:52:55.052Z,7.15
2022-12-15T22:55:24.490Z,7.82
2022-12-15T22:58:01.478Z,7.45
2022-12-15T23:00:28.852Z,6.43
2022-12-15T23:02:58.947Z,8.00
2022-12-15T23:05:26.393Z,6.63
2022-12-15T23:07:54.371Z,6.05
2022-12-15T23:10:40.665Z,4.97
2022-12-15T23:13:07.991Z,5.07
2022-12-15T23:15:53.981Z,6.90
2022-12-15T23:18:22.177Z,4.40
2022-12-15T23:20:51.648Z,5.43
2022-12-15T23:23:19.671Z,3.78
2022-12-15T23:25:46.959Z,6.03
2022-12-15T23:28:14.153Z,5.25
2022-12-15T23:30:41.387Z,4.68
2022-12-15T23:33:08.679Z,5.68
2022-12-15T23:35:39.323Z,4.90
2022-12-15T23:38:06.611Z,4.88
2022-12-15T23:40:33.857Z,5.47
2022-12-15T23:43:01.084Z,4.88
2022-12-15T23:45:28.326Z,4.65
2022-12-15T23:47:55.633Z,5.18
2022-12-15T23:50:22.859Z,5.43
2022-12-15T23:52:51.965Z,4.38
2022-12-15T23:55:19.586Z,4.30
2022-12-15T23:57:47.433Z,5.18
